createdAt,value
2023-02-09T10:06:35.148Z,13.07
2023-02-09T10:11:34.318Z,13.23
2023-02-09T10:16:30.621Z,16.27
2023-02-09T10:21:26.428Z,14.57
2023-02-09T10:26:24.570Z,13.37
2023-02-09T10:31:28.424Z,13.40
2023-02-09T10:36:29.859Z,15.70
2023-02-09T10:41:25.161Z,14.17
2023-02-09T10:46:21.716Z,11.17
2023-02-09T10:51:17.823Z,14.50
2023-02-09T10:56:19.391Z,14.67
2023-02-09T11:06:44.840Z,10.87
2023-02-09T11:11:40.469Z,8.80
2023-02-09T11:17:04.287Z,10.93
2023-02-09T11:22:07.600Z,10.60
2023-02-09T11:27:07.198Z,11.13
2023-02-09T11:32:14.670Z,10.03
2023-02-09T11:37:26.855Z,11.90
2023-02-09T11:42:43.202Z,10.33
2023-02-09T11:47:47.015Z,9.03
2023-02-09T11:52:48.681Z,16.20
2023-02-09T11:57:46.444Z,11.37
2023-02-09T12:02:47.644Z,15.00
2023-02-09T12:07:49.369Z,11.37
2023-02-09T12:12:49.339Z,14.57
2023-02-09T12:17:47.596Z,12.93
2023-02-09T12:22:57.444Z,10.67
2023-02-09T12:28:42.431Z,12.10
2023-02-09T12:33:37.932Z,14.60
2023-02-09T12:39:07.447Z,11.37
2023-02-09T12:44:23.097Z,10.37
2023-02-09T12:49:32.661Z,11.33
2023-02-09T12:54:35.246Z,10.80
2023-02-09T12:59:28.767Z,10.90
2023-02-09T13:04:24.346Z,12.17
2023-02-09T13:09:26.549Z,10.27
2023-02-09T13:14:23.454Z,9.97
2023-02-09T13:19:46.965Z,12.53
2023-02-09T13:24:49.578Z,9.63
2023-02-09T13:29:50.041Z,11.03
2023-02-09T13:34:47.714Z,11.10
2023-02-09T13:39:44.215Z,9.27
2023-02-09T13:44:37.723Z,11.40
2023-02-09T13:49:32.548Z,11.83
2023-02-09T13:54:26.026Z,9.33
2023-02-09T13:59:19.608Z,10.17
2023-02-09T14:04:17.072Z,10.30
2023-02-09T14:09:20.143Z,11.73
2023-02-09T14:14:19.843Z,12.10
2023-02-09T14:19:27.204Z,14.33
2023-02-09T14:24:23.740Z,12.30
2023-02-09T14:29:20.449Z,10.33
2023-02-09T14:34:30.248Z,11.07
2023-02-09T14:39:26.057Z,12.33
2023-02-09T14:44:22.358Z,12.63
2023-02-09T14:49:16.112Z,12.80
2023-02-09T14:54:27.654Z,13.17
2023-02-09T14:59:21.929Z,11.57
2023-02-09T15:04:15.772Z,14.70
2023-02-09T15:09:11.117Z,16.50
2023-02-09T15:14:10.896Z,14.13
2023-02-09T15:19:05.687Z,15.47
2023-02-09T15:23:59.577Z,15.47
2023-02-09T15:28:53.375Z,14.57
2023-02-09T15:33:48.765Z,14.53
2023-02-09T15:38:42.400Z,14.43
2023-02-09T15:43:53.926Z,15.07
2023-02-09T15:48:49.288Z,15.63
2023-02-09T15:53:43.456Z,15.37
2023-02-09T15:58:44.428Z,18.20
2023-02-09T16:03:38.485Z,24.13
2023-02-09T16:08:35.681Z,25.30
2023-02-09T16:13:29.382Z,48.80
2023-02-09T16:18:23.156Z,80.97
2023-02-09T16:23:21.201Z,44.83
2023-02-09T16:28:16.820Z,37.33
2023-02-09T16:33:10.458Z,42.27
2023-02-09T16:38:04.287Z,27.83
2023-02-09T16:42:59.675Z,34.67
2023-02-09T16:47:59.084Z,68.97
2023-02-09T16:52:55.422Z,49.47
